sensor_id;sensor_type;location;lat;lon;timestamp;pressure;altitude;pressure_sealevel;temperature;humidity
38253;BME280;24785;52.372;20.672;2022-10-26T00:07:04;100770.66;;;11.53;100.00
38253;BME280;24785;52.372;20.672;2022-10-26T00:17:05;100761.00;;;11.27;100.00
38253;BME280;24785;52.372;20.672;2022-10-26T00:27:06;100758.31;;;11.32;100.00
38253;BME280;24785;52.372;20.672;2022-10-26T00:37:07;100760.22;;;11.21;100.00
38253;BME280;24785;52.372;20.672;2022-10-26T00:57:14;100749.75;;;11.15;100.00
38253;BME280;24785;52.372;20.672;2022-10-26T01:07:15;100735.81;;;11.23;100.00
38253;BME280;24785;52.372;20.672;2022-10-26T01:17:56;100747.09;;;11.15;100.00
38253;BME280;24785;52.372;20.672;2022-10-26T01:27:58;100740.09;;;11.29;100.00
38253;BME280;24785;52.372;20.672;2022-10-26T01:38:08;100744.63;;;11.33;100.00
38253;BME280;24785;52.372;20.672;2022-10-26T01:48:12;100763.19;;;11.40;100.00
38253;BME280;24785;52.372;20.672;2022-10-26T02:29:27;100791.59;;;11.61;100.00
38253;BME280;24785;52.372;20.672;2022-10-26T02:39:31;100795.31;;;11.65;100.00
38253;BME280;24785;52.372;20.672;2022-10-26T02:49:34;100822.72;;;11.78;100.00
38253;BME280;24785;52.372;20.672;2022-10-26T02:59:37;100839.09;;;11.66;100.00
38253;BME280;24785;52.372;20.672;2022-10-26T03:09:40;100866.19;;;11.70;100.00
38253;BME280;24785;52.372;20.672;2022-10-26T03:19:41;100872.13;;;11.56;100.00
38253;BME280;24785;52.372;20.672;2022-10-26T03:29:42;100886.34;;;11.62;100.00
38253;BME280;24785;52.372;20.672;2022-10-26T03:39:42;100893.31;;;11.58;100.00
38253;BME280;24785;52.372;20.672;2022-10-26T03:49:43;100909.41;;;11.68;100.00
38253;BME280;24785;52.372;20.672;2022-10-26T03:59:44;100906.19;;;11.71;100.00
38253;BME280;24785;52.372;20.672;2022-10-26T04:09:45;100912.63;;;11.70;100.00
38253;BME280;24785;52.372;20.672;2022-10-26T04:19:46;100918.00;;;11.65;100.00
38253;BME280;24785;52.372;20.672;2022-10-26T04:29:46;100919.34;;;11.52;100.00
38253;BME280;24785;52.372;20.672;2022-10-26T04:39:47;100932.78;;;11.57;100.00
38253;BME280;24785;52.372;20.672;2022-10-26T04:49:48;100949.69;;;11.48;100.00
38253;BME280;24785;52.372;20.672;2022-10-26T04:59:49;100954.50;;;11.46;100.00
38253;BME280;24785;52.372;20.672;2022-10-26T05:09:49;100960.94;;;11.55;100.00
38253;BME280;24785;52.372;20.672;2022-10-26T05:19:50;100980.53;;;11.50;100.00
38253;BME280;24785;52.372;20.672;2022-10-26T05:29:59;100983.22;;;11.40;100.00
38253;BME280;24785;52.372;20.672;2022-10-26T05:40:00;100987.72;;;11.29;100.00
38253;BME280;24785;52.372;20.672;2022-10-26T05:50:01;100989.88;;;11.27;100.00
38253;BME280;24785;52.372;20.672;2022-10-26T06:00:19;100988.81;;;11.33;100.00
38253;BME280;24785;52.372;20.672;2022-10-26T06:10:20;101007.94;;;11.57;100.00
38253;BME280;24785;52.372;20.672;2022-10-26T06:30:44;101034.56;;;11.79;100.00
38253;BME280;24785;52.372;20.672;2022-10-26T06:40:48;101036.72;;;11.82;100.00
38253;BME280;24785;52.372;20.672;2022-10-26T06:50:51;101059.06;;;12.08;100.00
38253;BME280;24785;52.372;20.672;2022-10-26T07:00:53;101065.22;;;12.14;100.00
38253;BME280;24785;52.372;20.672;2022-10-26T07:10:54;101085.91;;;12.08;100.00
38253;BME280;24785;52.372;20.672;2022-10-26T07:20:57;101085.09;;;12.03;100.00
38253;BME280;24785;52.372;20.672;2022-10-26T07:30:58;101096.13;;;12.06;100.00
38253;BME280;24785;52.372;20.672;2022-10-26T07:41:00;101092.41;;;12.33;100.00
38253;BME280;24785;52.372;20.672;2022-10-26T07:51:01;101103.38;;;12.21;100.00
38253;BME280;24785;52.372;20.672;2022-10-26T08:01:12;101121.91;;;11.97;100.00
38253;BME280;24785;52.372;20.672;2022-10-26T08:11:14;101133.31;;;11.72;100.00
38253;BME280;24785;52.372;20.672;2022-10-26T08:21:16;101118.56;;;11.70;100.00
38253;BME280;24785;52.372;20.672;2022-10-26T08:31:17;101121.50;;;11.68;100.00
38253;BME280;24785;52.372;20.672;2022-10-26T08:41:26;101138.81;;;11.87;100.00
38253;BME280;24785;52.372;20.672;2022-10-26T08:51:35;101145.47;;;11.80;100.00
38253;BME280;24785;52.372;20.672;2022-10-26T09:01:39;101164.31;;;11.90;100.00
38253;BME280;24785;52.372;20.672;2022-10-26T09:22:14;101175.09;;;12.00;100.00
38253;BME280;24785;52.372;20.672;2022-10-26T09:32:19;101194.41;;;11.92;100.00
38253;BME280;24785;52.372;20.672;2022-10-26T09:42:29;101208.97;;;12.11;100.00
38253;BME280;24785;52.372;20.672;2022-10-26T09:52:32;101210.84;;;12.16;100.00
38253;BME280;24785;52.372;20.672;2022-10-26T10:02:38;101221.66;;;12.31;100.00
38253;BME280;24785;52.372;20.672;2022-10-26T10:12:43;101208.50;;;12.40;100.00
38253;BME280;24785;52.372;20.672;2022-10-26T10:22:53;101206.41;;;12.82;100.00
38253;BME280;24785;52.372;20.672;2022-10-26T10:33:09;101198.28;;;13.38;100.00
38253;BME280;24785;52.372;20.672;2022-10-26T10:43:12;101210.69;;;13.39;100.00
38253;BME280;24785;52.372;20.672;2022-10-26T10:53:20;101205.50;;;13.53;100.00
38253;BME280;24785;52.372;20.672;2022-10-26T11:03:36;101223.00;;;13.61;100.00
38253;BME280;24785;52.372;20.672;2022-10-26T11:34:38;101223.81;;;13.61;100.00
38253;BME280;24785;52.372;20.672;2022-10-26T11:44:50;101234.38;;;13.37;100.00
38253;BME280;24785;52.372;20.672;2022-10-26T11:54:57;101232.75;;;12.80;100.00
38253;BME280;24785;52.372;20.672;2022-10-26T12:15:32;101244.06;;;12.82;100.00
38253;BME280;24785;52.372;20.672;2022-10-26T12:25:33;101255.03;;;12.66;100.00
38253;BME280;24785;52.372;20.672;2022-10-26T12:35:41;101250.19;;;12.57;100.00
38253;BME280;24785;52.372;20.672;2022-10-26T12:45:44;101252.03;;;12.37;100.00
38253;BME280;24785;52.372;20.672;2022-10-26T13:16:25;101240.78;;;12.45;100.00
38253;BME280;24785;52.372;20.672;2022-10-26T13:26:28;101253.75;;;12.83;100.00
38253;BME280;24785;52.372;20.672;2022-10-26T13:37:20;101259.94;;;12.99;100.00
38253;BME280;24785;52.372;20.672;2022-10-26T13:46:57;101262.00;;;12.46;100.00
38253;BME280;24785;52.372;20.672;2022-10-26T13:57:01;101266.59;;;12.61;100.00
38253;BME280;24785;52.372;20.672;2022-10-26T14:07:04;101274.16;;;12.74;100.00
38253;BME280;24785;52.372;20.672;2022-10-26T14:17:04;101263.09;;;12.66;100.00
38253;BME280;24785;52.372;20.672;2022-10-26T14:27:16;101257.72;;;12.55;100.00
38253;BME280;24785;52.372;20.672;2022-10-26T14:37:57;101269.56;;;12.59;100.00
38253;BME280;24785;52.372;20.672;2022-10-26T14:47:50;101268.66;;;12.28;100.00
38253;BME280;24785;52.372;20.672;2022-10-26T14:58:04;101267.47;;;11.99;100.00
38253;BME280;24785;52.372;20.672;2022-10-26T15:08:41;101273.63;;;11.47;100.00
38253;BME280;24785;52.372;20.672;2022-10-26T15:18:46;101278.59;;;10.96;100.00
38253;BME280;24785;52.372;20.672;2022-10-26T15:28:47;101273.91;;;10.33;100.00
38253;BME280;24785;52.372;20.672;2022-10-26T15:38:49;101280.25;;;9.66;100.00
38253;BME280;24785;52.372;20.672;2022-10-26T15:48:56;101284.44;;;9.07;100.00
38253;BME280;24785;52.372;20.672;2022-10-26T15:58:58;101298.31;;;8.75;100.00
38253;BME280;24785;52.372;20.672;2022-10-26T16:09:02;101298.44;;;8.40;100.00
38253;BME280;24785;52.372;20.672;2022-10-26T16:19:03;101291.88;;;8.08;100.00
38253;BME280;24785;52.372;20.672;2022-10-26T16:29:04;101295.28;;;7.68;100.00
38253;BME280;24785;52.372;20.672;2022-10-26T16:39:05;101283.91;;;7.49;100.00
38253;BME280;24785;52.372;20.672;2022-10-26T16:49:06;101285.66;;;7.20;100.00
38253;BME280;24785;52.372;20.672;2022-10-26T16:59:08;101298.06;;;6.85;100.00
38253;BME280;24785;52.372;20.672;2022-10-26T17:09:09;101297.78;;;6.63;100.00
38253;BME280;24785;52.372;20.672;2022-10-26T17:19:10;101300.72;;;6.55;100.00
38253;BME280;24785;52.372;20.672;2022-10-26T17:29:12;101299.31;;;6.52;100.00
38253;BME280;24785;52.372;20.672;2022-10-26T17:39:13;101306.84;;;6.25;100.00
38253;BME280;24785;52.372;20.672;2022-10-26T17:49:13;101309.53;;;5.82;100.00
38253;BME280;24785;52.372;20.672;2022-10-26T17:59:14;101321.66;;;5.78;100.00
38253;BME280;24785;52.372;20.672;2022-10-26T18:09:15;101326.16;;;5.53;100.00
38253;BME280;24785;52.372;20.672;2022-10-26T18:19:16;101337.72;;;5.40;100.00
38253;BME280;24785;52.372;20.672;2022-10-26T18:29:17;101332.25;;;5.35;100.00
38253;BME280;24785;52.372;20.672;2022-10-26T18:39:17;101353.63;;;5.15;100.00
38253;BME280;24785;52.372;20.672;2022-10-26T18:49:18;101349.94;;;5.23;100.00
38253;BME280;24785;52.372;20.672;2022-10-26T18:59:20;101343.91;;;5.34;100.00
38253;BME280;24785;52.372;20.672;2022-10-26T19:09:20;101344.50;;;5.61;100.00
38253;BME280;24785;52.372;20.672;2022-10-26T19:19:21;101349.31;;;5.95;100.00
38253;BME280;24785;52.372;20.672;2022-10-26T19:29:24;101360.19;;;6.12;100.00
38253;BME280;24785;52.372;20.672;2022-10-26T19:39:25;101384.91;;;6.38;100.00
38253;BME280;24785;52.372;20.672;2022-10-26T19:49:27;101381.88;;;6.34;100.00
38253;BME280;24785;52.372;20.672;2022-10-26T19:59:27;101405.34;;;6.00;100.00
38253;BME280;24785;52.372;20.672;2022-10-26T20:09:28;101399.88;;;5.71;100.00
38253;BME280;24785;52.372;20.672;2022-10-26T20:19:30;101416.66;;;5.40;100.00
38253;BME280;24785;52.372;20.672;2022-10-26T20:29:31;101429.00;;;5.27;100.00
38253;BME280;24785;52.372;20.672;2022-10-26T20:39:32;101424.25;;;4.98;100.00
38253;BME280;24785;52.372;20.672;2022-10-26T20:49:33;101434.56;;;4.68;100.00
38253;BME280;24785;52.372;20.672;2022-10-26T20:59:39;101432.19;;;4.53;100.00
38253;BME280;24785;52.372;20.672;2022-10-26T21:09:44;101444.59;;;4.59;100.00
38253;BME280;24785;52.372;20.672;2022-10-26T21:19:45;101436.88;;;4.51;100.00
38253;BME280;24785;52.372;20.672;2022-10-26T21:29:46;101441.19;;;4.39;100.00
38253;BME280;24785;52.372;20.672;2022-10-26T21:39:47;101428.16;;;4.31;100.00
38253;BME280;24785;52.372;20.672;2022-10-26T21:49:48;101429.59;;;4.20;100.00
38253;BME280;24785;52.372;20.672;2022-10-26T21:59:49;101451.22;;;4.24;100.00
38253;BME280;24785;52.372;20.672;2022-10-26T22:09:49;101435.72;;;4.07;100.00
38253;BME280;24785;52.372;20.672;2022-10-26T22:19:50;101451.66;;;3.94;100.00
38253;BME280;24785;52.372;20.672;2022-10-26T22:29:51;101446.16;;;3.83;100.00
38253;BME280;24785;52.372;20.672;2022-10-26T22:39:52;101442.91;;;3.81;100.00
38253;BME280;24785;52.372;20.672;2022-10-26T22:49:53;101451.44;;;3.63;100.00
38253;BME280;24785;52.372;20.672;2022-10-26T22:59:53;101443.69;;;3.68;100.00
38253;BME280;24785;52.372;20.672;2022-10-26T23:09:54;101427.97;;;3.66;100.00
38253;BME280;24785;52.372;20.672;2022-10-26T23:19:55;101444.09;;;3.58;100.00
38253;BME280;24785;52.372;20.672;2022-10-26T23:29:56;101440.00;;;3.42;100.00
38253;BME280;24785;52.372;20.672;2022-10-26T23:39:56;101443.66;;;3.48;100.00
38253;BME280;24785;52.372;20.672;2022-10-26T23:49:57;101436.53;;;3.42;100.00
38253;BME280;24785;52.372;20.672;2022-10-26T23:59:58;101433.06;;;3.48;100.00
